메인 페이지
METAR-TAF:

METAR-TAF

공항 :

테헤란 메흐라바드 국제공항

테헤란, 이란

위도: 35-41N, 경도: 051-21E, 고도: 1204m

현재 날씨관측

예보는 25분 전, 16:00시(UTC)에 발표되었습니다.
북서4kt
온도 9°C
습도 46%
기압 1026 hPa
시정: 7000m

METAR: OIII 161600Z 31004KT 7000 NSC 09/M02 Q1026 A3030

시각: 19:55 (16:25 UTC)

예보

예보는 5 시간 25분 전, 11:00시(UTC)에 발표되었습니다.
예보 대상 시간: 16일 12시부터 17일 18시까지 (UTC)
서남서6kt
시정: 7000m
전환 중
17일 02시부터 17일 04시까지 (UTC)
시정: 4000m
연무
전환 중
17일 10시부터 17일 12시까지 (UTC)
8kt
시정: 7000m
고도 3500ft 상공 구름 조금, 적란운.
고도 4000ft 상공 구름 보통
고도 10000ft 상공 구름 많음
일시적
16일 15시부터 16일 18시까지 (UTC)
고도 3000ft 상공 구름 보통, 적란운.
고도 3500ft 상공 구름 보통
고도 10000ft 상공 흐림
소나기

TAF: OIII 161100Z 1612/1718 24003MPS 7000 NSC BECMG 1702/1704 4000 HZ BECMG 1710/1712 08004MPS 7000 FEW035CB SCT040 BKN100 TEMPO 1615/1618 SHRA SCT030CB SCT035 OVC100

4,000개 이상의 공항 관측 자료 및 예보 (METAR 및 TAF 보고).

지도상에서 검색 가능한 기상관측소가 노란 점과 빨간 점으로 표시되어 있습니다.

기상관측소 명을 보려면 표시 위로 마우스를 이동하세요.

날씨 관측과 예보를 보려면 클릭하세요.

지도 변경 : 확대하려면 엑스 표시가 있는 녹색 버튼, 축소하려면 빼기 표시가 있는 녹색 버튼, 다음 페이지의 지도를 보려면 녹색 화살표를 클릭하세요.


METAR-TAF: